Time;durP1;ratioP1;P1;durP2;ratioP2;P2;SDS_P1;SDS_P2;PMS_P1;PMS_P2;Temp;Humidity;BMP_temperature;BMP_pressure;BME280_temperature;BME280_humidity;BME280_pressure;Samples;Min_cycle;Max_cycle;Signal;HPM_P1;HPM_P2
2023/10/22 00:01:23;;;;;;;3.30;0.90;;;;;;;;;;5094062;28;20039;-69
2023/10/22 00:03:49;;;;;;;4.97;1.00;;;;;;;;;;5090580;28;20032;-69
2023/10/22 00:06:15;;;;;;;4.45;1.23;;;;;;;;;;5072150;28;20114;-68
2023/10/22 00:08:40;;;;;;;5.55;1.30;;;;;;;;;;5090462;28;20150;-69
2023/10/22 00:11:06;;;;;;;2.88;1.10;;;;;;;;;;5090636;28;20032;-69
2023/10/22 00:13:32;;;;;;;5.57;1.30;;;;;;;;;;5090295;28;20063;-68
2023/10/22 00:15:57;;;;;;;4.93;1.20;;;;;;;;;;5072652;28;20078;-68
2023/10/22 00:18:23;;;;;;;5.80;1.20;;;;;;;;;;5078335;28;20035;-67
2023/10/22 00:20:48;;;;;;;2.58;0.98;;;;;;;;;;5106421;28;20034;-69
2023/10/22 00:23:13;;;;;;;4.05;1.20;;;;;;;;;;5094287;28;20070;-69
2023/10/22 00:25:39;;;;;;;2.92;1.20;;;;;;;;;;5079410;28;20046;-69
2023/10/22 00:28:04;;;;;;;5.03;1.00;;;;;;;;;;5096211;28;20062;-69
2023/10/22 00:30:34;;;;;;;2.72;0.95;;;;;;;;;;5095411;28;20024;-69
2023/10/22 00:32:59;;;;;;;4.00;1.30;;;;;;;;;;5106645;28;20032;-68
2023/10/22 00:35:25;;;;;;;2.90;0.90;;;;;;;;;;5103201;28;20099;-71
2023/10/22 00:37:50;;;;;;;3.67;1.00;;;;;;;;;;5090270;28;20457;-69
2023/10/22 00:40:16;;;;;;;4.55;1.17;;;;;;;;;;5089970;28;20101;-68
2023/10/22 00:42:42;;;;;;;5.85;0.90;;;;;;;;;;5091053;28;20040;-69
2023/10/22 00:45:07;;;;;;;3.88;1.10;;;;;;;;;;5107039;28;20027;-69
2023/10/22 00:47:34;;;;;;;3.53;1.00;;;;;;;;;;5109642;28;20024;-70
2023/10/22 00:50:00;;;;;;;2.83;0.90;;;;;;;;;;5090725;28;20027;-70
2023/10/22 00:52:27;;;;;;;5.20;1.15;;;;;;;;;;5104118;28;20461;-69
2023/10/22 00:54:54;;;;;;;4.50;1.30;;;;;;;;;;5077764;28;20467;-69
2023/10/22 00:57:22;;;;;;;2.85;1.00;;;;;;;;;;5093490;28;20032;-68
2023/10/22 00:59:51;;;;;;;2.83;1.00;;;;;;;;;;5094178;28;20039;-69
2023/10/22 01:02:17;;;;;;;4.53;1.10;;;;;;;;;;5092901;28;20028;-68
2023/10/22 01:04:43;;;;;;;7.18;0.90;;;;;;;;;;5094714;28;20027;-69
2023/10/22 01:07:08;;;;;;;5.53;1.05;;;;;;;;;;5080238;28;20032;-69
2023/10/22 01:09:34;;;;;;;5.20;1.00;;;;;;;;;;5092668;28;20038;-69
2023/10/22 01:12:04;;;;;;;3.03;1.08;;;;;;;;;;5075363;28;20460;-69
2023/10/22 01:14:30;;;;;;;5.07;1.10;;;;;;;;;;5091986;28;20039;-68
2023/10/22 01:16:56;;;;;;;2.58;1.10;;;;;;;;;;5111907;28;20039;-70
2023/10/22 01:19:22;;;;;;;5.57;1.20;;;;;;;;;;5112427;28;20032;-68
2023/10/22 01:21:48;;;;;;;3.90;1.05;;;;;;;;;;5113408;28;20031;-70
2023/10/22 01:24:13;;;;;;;2.42;0.88;;;;;;;;;;5103867;28;20101;-69
2023/10/22 01:26:43;;;;;;;3.47;1.10;;;;;;;;;;5091413;28;20614;-69
2023/10/22 01:29:08;;;;;;;3.28;1.10;;;;;;;;;;5078417;28;20077;-69
2023/10/22 01:31:34;;;;;;;1.58;0.70;;;;;;;;;;5087352;28;20031;-69
2023/10/22 01:33:59;;;;;;;4.45;1.00;;;;;;;;;;5084017;28;20505;-70
2023/10/22 01:36:25;;;;;;;4.40;1.20;;;;;;;;;;5098653;28;20472;-68
2023/10/22 01:38:50;;;;;;;3.78;1.30;;;;;;;;;;5091945;28;20032;-70
2023/10/22 01:41:15;;;;;;;3.30;1.20;;;;;;;;;;5074884;28;20074;-69
2023/10/22 01:43:41;;;;;;;4.97;1.27;;;;;;;;;;5077651;28;20024;-69
2023/10/22 01:46:06;;;;;;;4.45;1.00;;;;;;;;;;5093598;28;20036;-70
2023/10/22 01:48:32;;;;;;;3.25;1.10;;;;;;;;;;5092854;28;20028;-69
2023/10/22 01:50:57;;;;;;;4.20;1.10;;;;;;;;;;5097983;28;20038;-69
2023/10/22 01:53:23;;;;;;;2.45;0.90;;;;;;;;;;5099701;28;20056;-68
2023/10/22 01:55:48;;;;;;;3.13;1.30;;;;;;;;;;5091687;28;20028;-69
2023/10/22 01:58:13;;;;;;;1.95;0.88;;;;;;;;;;5091595;28;20039;-69
2023/10/22 02:00:39;;;;;;;3.08;1.00;;;;;;;;;;5092503;28;20165;-69
2023/10/22 02:03:04;;;;;;;3.85;0.90;;;;;;;;;;5092320;28;20035;-69
2023/10/22 02:05:33;;;;;;;2.55;0.93;;;;;;;;;;5092138;28;20468;-69
2023/10/22 02:07:59;;;;;;;5.03;1.10;;;;;;;;;;5092468;28;20024;-70
2023/10/22 02:10:24;;;;;;;2.67;1.00;;;;;;;;;;5073711;28;20063;-68
2023/10/22 02:12:50;;;;;;;3.50;1.17;;;;;;;;;;5093455;28;20044;-69
2023/10/22 02:15:16;;;;;;;4.35;1.00;;;;;;;;;;5084772;28;20031;-69
2023/10/22 02:17:42;;;;;;;2.97;1.00;;;;;;;;;;5097940;28;20514;-69
2023/10/22 02:20:08;;;;;;;6.22;1.42;;;;;;;;;;5093002;28;20107;-69
2023/10/22 02:22:38;;;;;;;4.55;1.20;;;;;;;;;;5091031;28;20111;-69
2023/10/22 02:25:05;;;;;;;1.95;0.80;;;;;;;;;;5097894;28;20382;-70
2023/10/22 02:27:31;;;;;;;5.15;1.10;;;;;;;;;;5090873;28;20027;-69
2023/10/22 02:29:57;;;;;;;3.38;0.90;;;;;;;;;;5096633;28;20495;-70
2023/10/22 02:32:22;;;;;;;2.35;1.00;;;;;;;;;;5101726;28;20055;-69
2023/10/22 02:34:48;;;;;;;3.10;0.82;;;;;;;;;;5096631;28;20060;-71
2023/10/22 02:37:13;;;;;;;3.60;1.10;;;;;;;;;;5072455;28;20036;-69
2023/10/22 02:39:38;;;;;;;1.45;0.85;;;;;;;;;;5090441;28;20051;-69
2023/10/22 02:42:05;;;;;;;2.83;1.15;;;;;;;;;;5094545;28;20490;-70
2023/10/22 02:44:30;;;;;;;3.78;1.05;;;;;;;;;;5094258;28;20081;-69
2023/10/22 02:46:56;;;;;;;2.03;0.90;;;;;;;;;;5077429;28;20027;-70
2023/10/22 02:49:22;;;;;;;3.70;1.17;;;;;;;;;;5082196;28;20043;-70
2023/10/22 02:51:48;;;;;;;2.45;0.90;;;;;;;;;;5090003;28;20039;-70
2023/10/22 02:54:13;;;;;;;4.70;0.93;;;;;;;;;;5089781;28;20040;-69
2023/10/22 02:56:39;;;;;;;1.20;0.80;;;;;;;;;;5087569;28;20073;-69
2023/10/22 02:59:05;;;;;;;3.33;1.13;;;;;;;;;;5103271;28;20040;-69
2023/10/22 03:01:30;;;;;;;3.60;1.00;;;;;;;;;;5089804;28;20085;-69
2023/10/22 03:03:56;;;;;;;1.60;0.70;;;;;;;;;;5103294;28;20032;-70
2023/10/22 03:06:21;;;;;;;1.08;0.70;;;;;;;;;;5107633;28;20479;-70
2023/10/22 03:08:47;;;;;;;3.05;0.80;;;;;;;;;;5090678;28;20024;-69
2023/10/22 03:11:19;;;;;;;3.80;0.90;;;;;;;;;;5082970;28;20032;-68
2023/10/22 03:13:46;;;;;;;2.78;0.70;;;;;;;;;;5090449;28;20070;-70
2023/10/22 03:16:15;;;;;;;3.17;0.80;;;;;;;;;;5091117;28;20496;-70
2023/10/22 03:18:42;;;;;;;2.25;0.93;;;;;;;;;;5091729;28;20057;-69
2023/10/22 03:21:16;;;;;;;2.88;1.02;;;;;;;;;;5103077;28;20040;-69
2023/10/22 03:23:41;;;;;;;2.47;0.73;;;;;;;;;;5092350;28;20047;-69
2023/10/22 03:26:09;;;;;;;3.33;1.05;;;;;;;;;;5091277;28;20040;-69
2023/10/22 03:28:36;;;;;;;2.45;0.90;;;;;;;;;;5106428;28;20760;-69
2023/10/22 03:31:03;;;;;;;2.15;0.70;;;;;;;;;;5090714;28;20040;-71
2023/10/22 03:33:29;;;;;;;4.63;0.77;;;;;;;;;;5089802;28;20484;-68
2023/10/22 03:35:54;;;;;;;3.80;0.95;;;;;;;;;;5084828;28;20040;-69
2023/10/22 03:38:20;;;;;;;2.47;0.80;;;;;;;;;;5095141;28;20422;-69
2023/10/22 03:40:46;;;;;;;2.38;0.85;;;;;;;;;;5090011;28;20900;-69
2023/10/22 03:43:11;;;;;;;2.17;0.80;;;;;;;;;;5089943;28;20055;-69
2023/10/22 03:45:37;;;;;;;1.33;0.80;;;;;;;;;;5089215;28;20070;-68
2023/10/22 03:48:03;;;;;;;1.05;0.70;;;;;;;;;;5073276;28;20082;-69
2023/10/22 03:50:29;;;;;;;3.58;0.90;;;;;;;;;;5073957;28;20032;-68
2023/10/22 03:52:54;;;;;;;1.13;0.70;;;;;;;;;;5094169;28;20085;-69
2023/10/22 03:55:19;;;;;;;2.25;0.85;;;;;;;;;;5090478;28;20063;-69
2023/10/22 03:57:45;;;;;;;1.63;0.60;;;;;;;;;;5091734;28;20119;-69
2023/10/22 04:00:11;;;;;;;1.30;0.60;;;;;;;;;;5096510;28;20040;-70
2023/10/22 04:02:36;;;;;;;3.22;0.82;;;;;;;;;;5071996;28;20044;-68
2023/10/22 04:05:02;;;;;;;3.42;0.70;;;;;;;;;;5090409;28;20035;-68
2023/10/22 04:07:27;;;;;;;2.33;0.82;;;;;;;;;;5091243;28;20541;-69
2023/10/22 04:09:53;;;;;;;1.45;0.70;;;;;;;;;;5084831;28;20040;-71
2023/10/22 04:12:19;;;;;;;2.08;0.60;;;;;;;;;;5096535;28;20039;-70
2023/10/22 04:14:44;;;;;;;2.30;0.68;;;;;;;;;;5097187;28;20043;-69
2023/10/22 04:17:10;;;;;;;0.90;0.68;;;;;;;;;;5090773;28;20047;-69
2023/10/22 04:19:35;;;;;;;2.55;0.80;;;;;;;;;;5102393;28;20042;-69
2023/10/22 04:22:00;;;;;;;3.13;0.77;;;;;;;;;;5111870;28;20031;-69
2023/10/22 04:24:26;;;;;;;1.90;0.63;;;;;;;;;;5093374;28;20400;-69
2023/10/22 04:26:51;;;;;;;2.08;0.90;;;;;;;;;;5097214;28;20039;-68
2023/10/22 04:29:17;;;;;;;1.58;0.80;;;;;;;;;;5093871;28;20036;-71
2023/10/22 04:31:42;;;;;;;2.17;0.60;;;;;;;;;;5074820;28;20439;-68
2023/10/22 04:34:07;;;;;;;1.23;0.75;;;;;;;;;;5080651;28;20047;-69
2023/10/22 04:36:33;;;;;;;1.70;0.90;;;;;;;;;;5092630;28;20051;-67
2023/10/22 04:38:58;;;;;;;2.88;0.80;;;;;;;;;;5097607;28;20123;-68
2023/10/22 04:41:25;;;;;;;0.85;0.70;;;;;;;;;;5094845;28;20362;-69
2023/10/22 04:43:50;;;;;;;1.13;0.70;;;;;;;;;;5095529;28;20032;-68
2023/10/22 04:46:15;;;;;;;3.63;0.73;;;;;;;;;;5108670;28;20032;-68
2023/10/22 04:48:41;;;;;;;2.40;0.80;;;;;;;;;;5096999;28;20026;-69
2023/10/22 04:51:07;;;;;;;1.65;0.60;;;;;;;;;;5107155;28;20035;-68
2023/10/22 04:53:35;;;;;;;3.20;0.75;;;;;;;;;;5101740;28;20019;-68
2023/10/22 04:56:00;;;;;;;1.65;0.60;;;;;;;;;;5075481;28;20036;-67
2023/10/22 04:58:27;;;;;;;1.92;0.75;;;;;;;;;;5101084;28;20062;-69
2023/10/22 05:00:54;;;;;;;1.23;0.70;;;;;;;;;;5074021;28;20680;-69
2023/10/22 05:03:20;;;;;;;3.90;0.80;;;;;;;;;;5073380;28;20036;-68
2023/10/22 05:05:46;;;;;;;1.42;0.77;;;;;;;;;;5093295;28;20031;-69
2023/10/22 05:08:11;;;;;;;1.80;0.70;;;;;;;;;;5093983;28;20035;-69
2023/10/22 05:10:40;;;;;;;0.70;0.60;;;;;;;;;;5092912;28;20043;-69
2023/10/22 05:13:08;;;;;;;1.33;0.60;;;;;;;;;;5075593;28;20040;-69
2023/10/22 05:15:34;;;;;;;2.72;0.77;;;;;;;;;;5106977;28;20116;-69
2023/10/22 05:17:59;;;;;;;1.33;0.50;;;;;;;;;;5094247;28;20055;-69
2023/10/22 05:20:28;;;;;;;1.40;0.60;;;;;;;;;;5093434;28;20085;-69
2023/10/22 05:22:53;;;;;;;1.95;0.60;;;;;;;;;;5097027;28;20055;-69
2023/10/22 05:25:20;;;;;;;1.05;0.50;;;;;;;;;;5107891;28;20075;-69
2023/10/22 05:27:46;;;;;;;1.75;0.57;;;;;;;;;;5100702;28;20502;-69
2023/10/22 05:30:12;;;;;;;1.48;0.50;;;;;;;;;;5113693;28;20028;-70
2023/10/22 05:32:37;;;;;;;1.83;0.50;;;;;;;;;;5114028;28;20528;-68
2023/10/22 05:35:03;;;;;;;1.95;0.60;;;;;;;;;;5108350;28;20039;-70
2023/10/22 05:37:29;;;;;;;0.65;0.50;;;;;;;;;;5094284;28;20067;-69
2023/10/22 05:39:56;;;;;;;0.82;0.63;;;;;;;;;;5110192;28;20031;-69
2023/10/22 05:42:21;;;;;;;1.85;0.70;;;;;;;;;;5097389;28;20059;-70
2023/10/22 05:44:47;;;;;;;2.28;0.70;;;;;;;;;;5113216;28;20059;-69
2023/10/22 05:47:12;;;;;;;2.28;1.08;;;;;;;;;;5113075;28;20034;-70
2023/10/22 05:49:37;;;;;;;0.75;0.60;;;;;;;;;;5112820;28;20027;-68
2023/10/22 05:52:03;;;;;;;1.17;0.63;;;;;;;;;;5113807;28;20063;-69
2023/10/22 05:54:29;;;;;;;1.00;0.60;;;;;;;;;;5094799;28;20383;-69
2023/10/22 05:56:54;;;;;;;1.63;0.57;;;;;;;;;;5103871;28;20028;-69
2023/10/22 05:59:20;;;;;;;0.50;0.50;;;;;;;;;;5093496;28;20032;-70
2023/10/22 06:01:45;;;;;;;1.58;0.80;;;;;;;;;;5092522;28;20039;-69
2023/10/22 06:04:11;;;;;;;1.00;0.65;;;;;;;;;;5093244;28;20077;-70
2023/10/22 06:06:37;;;;;;;1.15;0.50;;;;;;;;;;5092655;28;20035;-68
2023/10/22 06:09:03;;;;;;;1.55;0.80;;;;;;;;;;5074786;28;20488;-70
2023/10/22 06:11:29;;;;;;;2.40;0.70;;;;;;;;;;5083582;28;20023;-69
2023/10/22 06:13:56;;;;;;;0.60;0.60;;;;;;;;;;5097930;28;20036;-68
2023/10/22 06:16:23;;;;;;;1.67;0.70;;;;;;;;;;5112287;28;20491;-69
2023/10/22 06:18:48;;;;;;;0.77;0.65;;;;;;;;;;5112346;28;20456;-65
2023/10/22 06:21:15;;;;;;;1.42;0.82;;;;;;;;;;5111573;28;20077;-65
2023/10/22 06:23:41;;;;;;;1.30;0.70;;;;;;;;;;5070518;28;20044;-64
2023/10/22 06:26:13;;;;;;;1.13;0.82;;;;;;;;;;5071189;28;20036;-64
2023/10/22 06:28:40;;;;;;;1.05;0.70;;;;;;;;;;5072301;28;20029;-65
2023/10/22 06:31:12;;;;;;;1.20;0.70;;;;;;;;;;5072436;28;20028;-65
2023/10/22 06:33:39;;;;;;;1.13;0.90;;;;;;;;;;5071082;28;20484;-65
2023/10/22 06:36:16;;;;;;;2.67;0.77;;;;;;;;;;5072203;28;20109;-64
2023/10/22 06:38:46;;;;;;;1.83;0.80;;;;;;;;;;5070802;28;20054;-65
2023/10/22 06:41:16;;;;;;;1.08;0.85;;;;;;;;;;5072564;28;20083;-64
2023/10/22 06:43:41;;;;;;;1.63;0.80;;;;;;;;;;5072049;28;20037;-66
2023/10/22 06:46:08;;;;;;;1.92;0.80;;;;;;;;;;5071681;28;20089;-65
2023/10/22 06:48:34;;;;;;;1.15;0.80;;;;;;;;;;5071467;28;20048;-65
2023/10/22 06:50:59;;;;;;;2.67;0.90;;;;;;;;;;5079884;28;20067;-65
2023/10/22 06:53:25;;;;;;;0.93;0.80;;;;;;;;;;5071049;28;20082;-65
2023/10/22 06:55:50;;;;;;;1.92;0.90;;;;;;;;;;5070987;28;20038;-66
2023/10/22 06:58:16;;;;;;;2.45;0.85;;;;;;;;;;5072568;28;20058;-68
2023/10/22 07:00:42;;;;;;;2.10;0.80;;;;;;;;;;5070897;28;20052;-66
2023/10/22 07:03:07;;;;;;;1.40;0.85;;;;;;;;;;5072462;28;20037;-68
2023/10/22 07:05:33;;;;;;;0.93;0.70;;;;;;;;;;5092428;28;20031;-67
2023/10/22 07:07:59;;;;;;;0.90;0.80;;;;;;;;;;5091643;28;20075;-68
2023/10/22 07:10:24;;;;;;;2.00;0.82;;;;;;;;;;5092530;28;20024;-68
2023/10/22 07:12:50;;;;;;;1.40;0.73;;;;;;;;;;5077694;28;20035;-68
2023/10/22 07:15:15;;;;;;;2.80;0.90;;;;;;;;;;5071926;28;20469;-68
2023/10/22 07:17:41;;;;;;;2.67;1.02;;;;;;;;;;5071429;28;20021;-68
2023/10/22 07:20:07;;;;;;;0.70;0.70;;;;;;;;;;5070080;28;20052;-68
2023/10/22 07:22:33;;;;;;;1.67;1.00;;;;;;;;;;5072014;28;20108;-68
2023/10/22 07:24:58;;;;;;;1.50;1.00;;;;;;;;;;5090327;28;20377;-68
2023/10/22 07:27:23;;;;;;;2.45;0.90;;;;;;;;;;5073969;28;20032;-68
2023/10/22 07:29:49;;;;;;;1.50;0.98;;;;;;;;;;5091385;28;20028;-68
2023/10/22 07:32:14;;;;;;;1.10;0.80;;;;;;;;;;5092291;28;20522;-68
2023/10/22 07:34:40;;;;;;;3.00;0.80;;;;;;;;;;5091885;28;20036;-68
2023/10/22 07:37:05;;;;;;;2.03;1.10;;;;;;;;;;5110906;28;20114;-68
2023/10/22 07:39:32;;;;;;;2.35;1.10;;;;;;;;;;5093897;28;20034;-68
2023/10/22 07:41:58;;;;;;;1.98;1.23;;;;;;;;;;5093126;28;20472;-67
2023/10/22 07:44:24;;;;;;;3.00;1.10;;;;;;;;;;5111981;28;20548;-68
2023/10/22 07:46:49;;;;;;;2.50;1.00;;;;;;;;;;5093040;28;20027;-68
2023/10/22 07:49:15;;;;;;;3.63;1.23;;;;;;;;;;5111382;28;20027;-68
2023/10/22 07:51:40;;;;;;;2.00;1.17;;;;;;;;;;5091171;28;20088;-68
2023/10/22 07:54:07;;;;;;;1.60;1.00;;;;;;;;;;5091000;28;20047;-68
2023/10/22 07:56:34;;;;;;;2.75;1.10;;;;;;;;;;5091713;28;20373;-67
2023/10/22 07:58:59;;;;;;;1.45;1.10;;;;;;;;;;5095038;28;20031;-67
2023/10/22 08:01:25;;;;;;;2.20;1.20;;;;;;;;;;5095850;28;20024;-68
2023/10/22 08:03:50;;;;;;;1.88;1.00;;;;;;;;;;5097967;28;20118;-67
2023/10/22 08:06:16;;;;;;;1.95;1.00;;;;;;;;;;5095585;28;20032;-68
2023/10/22 08:08:41;;;;;;;3.78;1.60;;;;;;;;;;5095963;28;20036;-68
2023/10/22 08:11:07;;;;;;;1.58;1.17;;;;;;;;;;5096033;28;20032;-68
2023/10/22 08:13:33;;;;;;;2.38;1.42;;;;;;;;;;5091616;28;20084;-68
2023/10/22 08:16:02;;;;;;;1.17;0.93;;;;;;;;;;5114723;28;20027;-68
2023/10/22 08:18:27;;;;;;;1.40;0.80;;;;;;;;;;5097716;28;20084;-67
2023/10/22 08:20:53;;;;;;;1.90;0.90;;;;;;;;;;5114982;28;20028;-67
2023/10/22 08:23:18;;;;;;;1.75;1.00;;;;;;;;;;5104445;28;20052;-67
2023/10/22 08:25:51;;;;;;;1.80;1.10;;;;;;;;;;5094739;28;20118;-67
2023/10/22 08:28:17;;;;;;;1.02;0.90;;;;;;;;;;5095947;28;20044;-67
2023/10/22 08:30:46;;;;;;;2.83;1.05;;;;;;;;;;5095050;28;20031;-67
2023/10/22 08:33:12;;;;;;;1.60;0.95;;;;;;;;;;5096571;28;20040;-67
2023/10/22 08:35:38;;;;;;;1.45;0.93;;;;;;;;;;5115460;28;20035;-67
2023/10/22 08:38:03;;;;;;;1.58;0.90;;;;;;;;;;5114524;28;20155;-67
2023/10/22 08:40:29;;;;;;;1.77;1.05;;;;;;;;;;5115352;28;20464;-67
2023/10/22 08:42:56;;;;;;;1.33;0.80;;;;;;;;;;5114202;28;20047;-68
2023/10/22 08:45:22;;;;;;;1.00;0.90;;;;;;;;;;5094646;28;20039;-67
2023/10/22 08:47:47;;;;;;;1.27;0.82;;;;;;;;;;5103179;28;20395;-66
2023/10/22 08:50:16;;;;;;;1.08;0.80;;;;;;;;;;5094481;28;20030;-68
2023/10/22 08:52:41;;;;;;;1.25;0.98;;;;;;;;;;5107565;28;20023;-67
2023/10/22 08:55:07;;;;;;;1.38;1.10;;;;;;;;;;5110307;28;20039;-68
2023/10/22 08:57:35;;;;;;;2.35;1.10;;;;;;;;;;5107274;28;20031;-68
2023/10/22 09:00:00;;;;;;;1.50;1.10;;;;;;;;;;5093729;28;20040;-67
2023/10/22 09:02:27;;;;;;;2.80;1.17;;;;;;;;;;5094428;28;20161;-68
2023/10/22 09:04:53;;;;;;;3.38;1.10;;;;;;;;;;5075627;28;20024;-68
2023/10/22 09:07:18;;;;;;;2.03;1.00;;;;;;;;;;5094510;28;20114;-68
2023/10/22 09:09:44;;;;;;;2.83;1.05;;;;;;;;;;5093820;28;20111;-68
2023/10/22 09:12:10;;;;;;;2.92;1.17;;;;;;;;;;5094511;28;20463;-68
2023/10/22 09:14:36;;;;;;;3.22;1.40;;;;;;;;;;5076564;28;20186;-68
2023/10/22 09:17:18;;;;;;;3.38;1.20;;;;;;;;;;5093464;28;20047;-68
2023/10/22 09:19:48;;;;;;;2.40;1.10;;;;;;;;;;5094586;28;20093;-67
2023/10/22 09:22:22;;;;;;;3.63;1.30;;;;;;;;;;5093532;28;20440;-67
2023/10/22 09:24:50;;;;;;;2.30;1.15;;;;;;;;;;5093973;28;20056;-68
2023/10/22 09:27:26;;;;;;;2.10;1.25;;;;;;;;;;5104539;28;20047;-67
2023/10/22 09:29:53;;;;;;;1.88;1.10;;;;;;;;;;5093424;28;20027;-67
2023/10/22 09:32:19;;;;;;;2.60;1.23;;;;;;;;;;5114440;28;20035;-67
2023/10/22 09:34:44;;;;;;;3.95;1.38;;;;;;;;;;5114357;28;20047;-67
2023/10/22 09:37:10;;;;;;;2.40;1.20;;;;;;;;;;5113473;28;20072;-67
2023/10/22 09:39:39;;;;;;;3.58;1.40;;;;;;;;;;5114396;28;20028;-67
2023/10/22 09:42:08;;;;;;;2.78;1.20;;;;;;;;;;5113196;28;20027;-67
2023/10/22 09:44:35;;;;;;;2.35;1.25;;;;;;;;;;5100706;28;20119;-67
2023/10/22 09:47:02;;;;;;;6.35;1.30;;;;;;;;;;5092742;28;20032;-67
2023/10/22 09:49:32;;;;;;;2.85;1.30;;;;;;;;;;5109773;28;20174;-67
2023/10/22 09:51:59;;;;;;;3.47;1.50;;;;;;;;;;5112717;28;20464;-67
2023/10/22 09:54:36;;;;;;;2.42;1.52;;;;;;;;;;5114002;28;20037;-67
2023/10/22 09:57:07;;;;;;;6.32;1.30;;;;;;;;;;5113003;28;20059;-67
2023/10/22 09:59:33;;;;;;;2.88;1.40;;;;;;;;;;5114001;28;20114;-67
2023/10/22 10:02:00;;;;;;;4.97;1.50;;;;;;;;;;5112794;28;20102;-67
2023/10/22 10:04:26;;;;;;;5.28;1.45;;;;;;;;;;5094331;28;20164;-67
2023/10/22 10:06:53;;;;;;;2.88;1.38;;;;;;;;;;5074546;28;20497;-67
2023/10/22 10:09:23;;;;;;;3.58;1.20;;;;;;;;;;5093439;28;20124;-67
2023/10/22 10:11:50;;;;;;;2.90;1.40;;;;;;;;;;5093359;28;20032;-67
2023/10/22 10:14:38;;;;;;;4.97;1.20;;;;;;;;;;5093173;28;20032;-67
2023/10/22 10:17:04;;;;;;;5.10;1.35;;;;;;;;;;5092191;28;20031;-67
2023/10/22 10:19:30;;;;;;;2.13;1.30;;;;;;;;;;5093623;28;20021;-67
2023/10/22 10:21:55;;;;;;;3.53;1.20;;;;;;;;;;5092712;28;20194;-68
2023/10/22 10:24:22;;;;;;;1.83;1.10;;;;;;;;;;5093157;28;20055;-67
2023/10/22 10:26:50;;;;;;;2.60;1.40;;;;;;;;;;5095346;28;20028;-67
2023/10/22 10:29:18;;;;;;;3.45;1.40;;;;;;;;;;5105538;28;20089;-67
2023/10/22 10:31:45;;;;;;;5.20;1.35;;;;;;;;;;5093379;28;20032;-67
2023/10/22 10:34:40;;;;;;;1.73;1.05;;;;;;;;;;5091958;28;20038;-68
2023/10/22 10:37:17;;;;;;;3.38;1.50;;;;;;;;;;5090956;28;20089;-67
2023/10/22 10:39:52;;;;;;;2.03;1.40;;;;;;;;;;5092792;28;20032;-68
2023/10/22 10:42:30;;;;;;;2.75;1.27;;;;;;;;;;5092395;28;20107;-67
2023/10/22 10:44:57;;;;;;;3.05;1.20;;;;;;;;;;5091818;28;20028;-67
2023/10/22 10:47:22;;;;;;;2.03;1.35;;;;;;;;;;5092654;28;20028;-68
2023/10/22 10:50:02;;;;;;;2.35;1.20;;;;;;;;;;5092350;28;20040;-68
2023/10/22 10:52:52;;;;;;;4.03;1.20;;;;;;;;;;5092293;28;20040;-68
2023/10/22 10:55:23;;;;;;;1.52;1.17;;;;;;;;;;5092034;28;20031;-68
2023/10/22 10:57:53;;;;;;;2.63;1.20;;;;;;;;;;5084867;28;20038;-68
2023/10/22 11:00:31;;;;;;;1.40;0.98;;;;;;;;;;5093862;28;20038;-66
2023/10/22 11:03:00;;;;;;;2.22;0.90;;;;;;;;;;5111992;28;20031;-68
2023/10/22 11:05:31;;;;;;;1.10;1.00;;;;;;;;;;5112583;28;20023;-67
2023/10/22 11:07:57;;;;;;;2.35;1.10;;;;;;;;;;5111730;28;20066;-67
2023/10/22 11:10:23;;;;;;;4.07;1.20;;;;;;;;;;5112548;28;20051;-68
2023/10/22 11:12:49;;;;;;;2.00;1.17;;;;;;;;;;5098712;28;20036;-67
2023/10/22 11:15:16;;;;;;;1.95;1.27;;;;;;;;;;5091060;28;20677;-67
2023/10/22 11:17:42;;;;;;;1.83;1.10;;;;;;;;;;5073504;28;20084;-68
2023/10/22 11:20:09;;;;;;;1.67;1.02;;;;;;;;;;5091114;28;20097;-66
2023/10/22 11:22:37;;;;;;;2.00;1.10;;;;;;;;;;5091774;28;20028;-68
2023/10/22 11:25:09;;;;;;;3.83;1.27;;;;;;;;;;5091264;28;20532;-68
2023/10/22 11:27:38;;;;;;;3.22;1.40;;;;;;;;;;5091799;28;20038;-66
2023/10/22 11:30:05;;;;;;;2.15;1.10;;;;;;;;;;5090863;28;20028;-67
2023/10/22 11:32:30;;;;;;;2.45;1.08;;;;;;;;;;5091891;28;20034;-68
2023/10/22 11:35:13;;;;;;;2.63;1.30;;;;;;;;;;5091641;28;20039;-67
2023/10/22 11:37:43;;;;;;;3.53;1.35;;;;;;;;;;5073941;28;20025;-67
2023/10/22 11:40:31;;;;;;;2.65;1.50;;;;;;;;;;5091498;28;20085;-67
2023/10/22 11:43:04;;;;;;;3.35;1.40;;;;;;;;;;5091297;28;20085;-67
2023/10/22 11:45:31;;;;;;;5.10;1.30;;;;;;;;;;5073783;28;20028;-67
2023/10/22 11:48:16;;;;;;;2.70;1.50;;;;;;;;;;5091212;28;20078;-67
2023/10/22 11:50:46;;;;;;;2.03;1.27;;;;;;;;;;5091876;28;20116;-67
2023/10/22 11:53:11;;;;;;;3.33;1.40;;;;;;;;;;5090539;28;20020;-67
2023/10/22 11:55:37;;;;;;;1.95;1.20;;;;;;;;;;5091687;28;20119;-67
2023/10/22 11:58:03;;;;;;;3.30;1.60;;;;;;;;;;5072430;28;20044;-67
2023/10/22 12:00:29;;;;;;;2.70;1.40;;;;;;;;;;5091688;28;20028;-67
2023/10/22 12:02:54;;;;;;;2.10;1.42;;;;;;;;;;5093558;28;20109;-67
2023/10/22 12:05:20;;;;;;;2.45;1.27;;;;;;;;;;5111152;28;20550;-67
2023/10/22 12:07:46;;;;;;;2.22;1.45;;;;;;;;;;5094279;28;20054;-66
2023/10/22 12:10:12;;;;;;;2.08;1.63;;;;;;;;;;5090408;28;20024;-66
2023/10/22 12:12:38;;;;;;;1.63;1.30;;;;;;;;;;5091798;28;20032;-66
2023/10/22 12:15:04;;;;;;;2.25;1.40;;;;;;;;;;5072559;28;20515;-66
2023/10/22 12:17:30;;;;;;;2.60;1.40;;;;;;;;;;5091541;28;20035;-66
2023/10/22 12:19:56;;;;;;;2.20;1.70;;;;;;;;;;5076628;28;20028;-66
2023/10/22 12:22:21;;;;;;;4.57;1.90;;;;;;;;;;5110955;28;20031;-66
2023/10/22 12:24:48;;;;;;;2.33;1.60;;;;;;;;;;5109712;28;20052;-66
2023/10/22 12:27:15;;;;;;;3.15;1.63;;;;;;;;;;5092430;28;20059;-66
2023/10/22 12:29:40;;;;;;;3.80;2.05;;;;;;;;;;5093863;28;20028;-66
2023/10/22 12:32:06;;;;;;;2.90;1.95;;;;;;;;;;5090192;28;20032;-66
2023/10/22 12:34:31;;;;;;;2.90;1.75;;;;;;;;;;5091469;28;20461;-67
2023/10/22 12:36:56;;;;;;;2.78;1.50;;;;;;;;;;5073107;28;20418;-67
2023/10/22 12:39:22;;;;;;;4.95;1.70;;;;;;;;;;5072258;28;20472;-67
2023/10/22 12:41:47;;;;;;;3.30;1.50;;;;;;;;;;5091949;28;20028;-66
2023/10/22 12:44:13;;;;;;;3.67;1.60;;;;;;;;;;5091869;28;20373;-67
2023/10/22 12:46:39;;;;;;;3.92;1.50;;;;;;;;;;5094852;28;20039;-66
2023/10/22 12:49:04;;;;;;;3.13;1.65;;;;;;;;;;5093919;28;20020;-66
2023/10/22 12:51:29;;;;;;;2.45;1.58;;;;;;;;;;5080565;28;20051;-67
2023/10/22 12:53:55;;;;;;;2.53;1.40;;;;;;;;;;5114642;28;20100;-67
2023/10/22 12:56:20;;;;;;;2.58;1.70;;;;;;;;;;5114163;28;20038;-67
2023/10/22 12:58:47;;;;;;;2.15;1.60;;;;;;;;;;5114719;28;20110;-67
2023/10/22 13:01:15;;;;;;;3.45;1.75;;;;;;;;;;5113931;28;20485;-67
2023/10/22 13:03:40;;;;;;;4.82;1.40;;;;;;;;;;5114868;28;20115;-66
2023/10/22 13:06:06;;;;;;;3.20;1.63;;;;;;;;;;5113988;28;20077;-66
2023/10/22 13:08:32;;;;;;;3.03;1.50;;;;;;;;;;5115025;28;20030;-67
2023/10/22 13:11:00;;;;;;;5.38;1.60;;;;;;;;;;5095838;28;20500;-66
2023/10/22 13:13:27;;;;;;;2.25;1.40;;;;;;;;;;5094042;28;20510;-66
2023/10/22 13:15:52;;;;;;;3.00;1.65;;;;;;;;;;5094118;28;20052;-66
2023/10/22 13:18:17;;;;;;;2.33;1.40;;;;;;;;;;5093270;28;20161;-66
2023/10/22 13:20:43;;;;;;;2.63;1.30;;;;;;;;;;5076107;28;20024;-66
2023/10/22 13:23:09;;;;;;;3.90;1.60;;;;;;;;;;5094551;28;20074;-66
2023/10/22 13:25:35;;;;;;;2.58;1.65;;;;;;;;;;5094152;28;20074;-66
2023/10/22 13:28:00;;;;;;;2.17;1.33;;;;;;;;;;5104026;28;20036;-66
2023/10/22 13:30:29;;;;;;;4.25;1.50;;;;;;;;;;5113270;28;20027;-66
2023/10/22 13:32:57;;;;;;;3.05;1.50;;;;;;;;;;5114191;28;20035;-66
2023/10/22 13:35:23;;;;;;;3.03;1.50;;;;;;;;;;5113535;28;20062;-66
2023/10/22 13:37:49;;;;;;;3.10;1.33;;;;;;;;;;5114346;28;20082;-65
2023/10/22 13:40:14;;;;;;;3.15;1.20;;;;;;;;;;5113024;28;20460;-66
2023/10/22 13:42:40;;;;;;;1.73;1.20;;;;;;;;;;5113929;28;20100;-67
2023/10/22 13:45:06;;;;;;;2.17;1.30;;;;;;;;;;5113255;28;20121;-66
2023/10/22 13:47:32;;;;;;;2.17;1.30;;;;;;;;;;5114194;28;20059;-66
2023/10/22 13:49:58;;;;;;;3.70;1.50;;;;;;;;;;5113965;28;20431;-66
2023/10/22 13:52:24;;;;;;;2.10;1.38;;;;;;;;;;5113314;28;20058;-66
2023/10/22 13:54:49;;;;;;;7.07;1.50;;;;;;;;;;5113241;28;20453;-66
2023/10/22 13:57:14;;;;;;;2.03;1.30;;;;;;;;;;5111170;28;20028;-66
2023/10/22 13:59:40;;;;;;;2.38;1.60;;;;;;;;;;5111079;28;20027;-66
2023/10/22 14:02:06;;;;;;;2.90;1.20;;;;;;;;;;5113236;28;20157;-64
2023/10/22 14:04:31;;;;;;;2.42;1.42;;;;;;;;;;5097668;28;20455;-70
2023/10/22 14:06:57;;;;;;;1.65;1.20;;;;;;;;;;5101266;28;20418;-63
2023/10/22 14:09:22;;;;;;;3.55;1.60;;;;;;;;;;5111079;28;20096;-66
2023/10/22 14:11:47;;;;;;;2.75;1.30;;;;;;;;;;5113542;28;20425;-65
2023/10/22 14:14:13;;;;;;;2.40;1.30;;;;;;;;;;5100379;28;20111;-65
2023/10/22 14:16:38;;;;;;;3.45;1.40;;;;;;;;;;5093305;28;20106;-66
2023/10/22 14:19:04;;;;;;;2.85;1.35;;;;;;;;;;5093020;28;20103;-66
2023/10/22 14:21:29;;;;;;;5.78;1.30;;;;;;;;;;5111804;28;20027;-64
2023/10/22 14:23:54;;;;;;;2.90;1.30;;;;;;;;;;5086301;28;20048;-63
2023/10/22 14:26:20;;;;;;;2.03;1.13;;;;;;;;;;5092365;28;20039;-65
2023/10/22 14:28:46;;;;;;;3.15;1.40;;;;;;;;;;5093218;28;20036;-64
2023/10/22 14:31:11;;;;;;;3.35;1.20;;;;;;;;;;5107156;28;20055;-65
2023/10/22 14:33:36;;;;;;;2.33;1.20;;;;;;;;;;5088548;28;20020;-64
2023/10/22 14:36:04;;;;;;;2.28;1.27;;;;;;;;;;5092737;28;20086;-64
2023/10/22 14:38:30;;;;;;;3.58;1.40;;;;;;;;;;5091920;28;20027;-64
2023/10/22 14:40:56;;;;;;;3.25;1.38;;;;;;;;;;5101100;28;20072;-64